Time;durP1;ratioP1;P1;durP2;ratioP2;P2;SDS_P1;SDS_P2;PMS_P1;PMS_P2;Temp;Humidity;BMP_temperature;BMP_pressure;BME280_temperature;BME280_humidity;BME280_pressure;Samples;Min_cycle;Max_cycle;Signal;HPM_P1;HPM_P2
2021/04/14 00:01:57;;;;;;;3.58;2.60;;;5.00;99.90;;;;;;5114267;28;20245;-67
2021/04/14 00:04:23;;;;;;;2.22;2.03;;;5.00;99.90;;;;;;5096607;28;20203;-68
2021/04/14 00:06:49;;;;;;;4.45;2.38;;;5.10;99.90;;;;;;5096703;28;20222;-67
2021/04/14 00:09:15;;;;;;;2.60;1.90;;;5.10;99.90;;;;;;5096827;28;20198;-67
2021/04/14 00:11:40;;;;;;;4.20;2.20;;;5.20;99.90;;;;;;5114946;28;20176;-67
2021/04/14 00:14:07;;;;;;;1.90;1.73;;;5.30;99.90;;;;;;5096461;28;20191;-68
2021/04/14 00:16:34;;;;;;;4.75;2.75;;;5.20;99.90;;;;;;5114841;28;20629;-66
2021/04/14 00:18:59;;;;;;;3.65;3.35;;;5.20;99.90;;;;;;5114668;28;20270;-66
2021/04/14 00:21:26;;;;;;;3.07;2.17;;;5.40;99.90;;;;;;5114777;28;20647;-68
2021/04/14 00:23:52;;;;;;;3.92;3.17;;;5.40;99.90;;;;;;5114499;28;20215;-66
2021/04/14 00:26:18;;;;;;;4.37;3.97;;;5.40;99.90;;;;;;5096303;28;20184;-68
2021/04/14 00:28:44;;;;;;;3.30;2.60;;;5.50;99.90;;;;;;5096204;28;20447;-67
2021/04/14 00:31:11;;;;;;;2.83;1.77;;;5.50;99.90;;;;;;5114473;28;20392;-68
2021/04/14 00:33:36;;;;;;;5.70;3.80;;;5.60;99.90;;;;;;5114367;28;20223;-67
2021/04/14 00:36:03;;;;;;;8.20;4.47;;;5.60;99.90;;;;;;5096083;28;20218;-68
2021/04/14 00:38:28;;;;;;;5.15;3.90;;;5.60;99.90;;;;;;5114346;28;20190;-67
2021/04/14 00:40:57;;;;;;;4.73;3.93;;;5.70;99.90;;;;;;5114298;28;20172;-69
2021/04/14 00:43:27;;;;;;;4.18;3.88;;;5.80;99.90;;;;;;5095868;28;20224;-67
2021/04/14 00:45:53;;;;;;;5.13;3.58;;;5.70;99.90;;;;;;5096039;28;20236;-66
2021/04/14 00:48:20;;;;;;;2.70;2.10;;;5.70;99.90;;;;;;5096217;28;20208;-67
2021/04/14 00:50:46;;;;;;;5.72;3.65;;;5.70;99.90;;;;;;5114002;28;20222;-66
2021/04/14 00:53:12;;;;;;;4.30;3.90;;;5.80;99.90;;;;;;5114657;28;20545;-66
2021/04/14 00:55:39;;;;;;;5.03;3.55;;;5.80;99.90;;;;;;5114223;28;20407;-68
2021/04/14 00:58:06;;;;;;;3.58;3.17;;;5.70;99.90;;;;;;5114581;28;20601;-68
2021/04/14 01:00:42;;;;;;;4.15;3.75;;;5.70;99.90;;;;;;5114155;28;20167;-68
2021/04/14 01:03:18;;;;;;;4.90;3.67;;;5.70;99.90;;;;;;5114478;28;20215;-67
2021/04/14 01:05:44;;;;;;;5.28;3.85;;;5.70;99.90;;;;;;5114131;28;20156;-68
2021/04/14 01:08:10;;;;;;;5.80;4.93;;;5.60;99.90;;;;;;5114463;28;20294;-67
2021/04/14 01:10:36;;;;;;;3.87;3.00;;;5.60;99.90;;;;;;5114048;28;20264;-68
2021/04/14 01:13:04;;;;;;;4.20;3.53;;;5.70;99.90;;;;;;5114681;28;20441;-67
2021/04/14 01:15:39;;;;;;;4.78;3.80;;;5.70;99.90;;;;;;5099915;28;20423;-68
2021/04/14 01:18:07;;;;;;;4.78;4.25;;;5.60;99.90;;;;;;5118721;28;20705;-68
2021/04/14 01:20:36;;;;;;;4.75;3.15;;;5.60;99.90;;;;;;5118044;28;20192;-68
2021/04/14 01:23:04;;;;;;;8.60;4.55;;;5.60;99.90;;;;;;5099904;28;20264;-67
2021/04/14 01:25:38;;;;;;;5.93;5.03;;;5.70;99.90;;;;;;5118091;28;20172;-67
2021/04/14 01:28:25;;;;;;;4.15;3.03;;;5.60;99.90;;;;;;5099873;28;20668;-66
2021/04/14 01:30:53;;;;;;;5.45;3.70;;;5.70;99.90;;;;;;5117364;28;20192;-68
2021/04/14 01:33:20;;;;;;;4.70;3.45;;;5.80;99.90;;;;;;5099720;28;20267;-67
2021/04/14 01:35:45;;;;;;;4.20;3.80;;;5.80;99.90;;;;;;5117898;28;20203;-67
2021/04/14 01:38:11;;;;;;;6.50;3.80;;;5.80;99.90;;;;;;5118243;28;20577;-66
2021/04/14 01:40:37;;;;;;;3.35;2.10;;;5.80;99.90;;;;;;5117826;28;20259;-68
2021/04/14 01:43:04;;;;;;;2.30;1.20;;;5.80;99.90;;;;;;5118031;28;20663;-66
2021/04/14 01:45:39;;;;;;;0.68;0.68;;;5.90;99.90;;;;;;5117659;28;20172;-68
2021/04/14 01:48:05;;;;;;;1.52;1.42;;;6.00;99.90;;;;;;5118173;28;20210;-67
2021/04/14 01:50:32;;;;;;;4.10;1.55;;;5.90;99.90;;;;;;5117361;28;20228;-68
2021/04/14 01:52:59;;;;;;;1.80;1.05;;;5.80;99.90;;;;;;5118012;28;20236;-67
2021/04/14 01:55:26;;;;;;;2.05;1.95;;;5.80;99.90;;;;;;5117537;28;20172;-67
2021/04/14 01:57:52;;;;;;;1.90;1.80;;;5.80;99.90;;;;;;5117769;28;20227;-67
2021/04/14 02:00:29;;;;;;;2.10;1.45;;;5.90;99.90;;;;;;5117339;28;20168;-67
2021/04/14 02:02:55;;;;;;;0.98;0.88;;;5.90;99.90;;;;;;5117642;28;20215;-67
2021/04/14 02:05:25;;;;;;;1.52;1.42;;;5.80;99.90;;;;;;5117327;28;20174;-68
2021/04/14 02:07:51;;;;;;;2.03;1.50;;;5.80;99.90;;;;;;5099086;28;20215;-67
2021/04/14 02:10:17;;;;;;;1.67;1.57;;;5.70;99.90;;;;;;5117275;28;20179;-68
2021/04/14 02:12:43;;;;;;;1.67;1.53;;;5.80;99.90;;;;;;5117460;28;20253;-67
2021/04/14 02:15:15;;;;;;;3.53;1.10;;;5.80;99.90;;;;;;5117075;28;20180;-67
2021/04/14 02:17:40;;;;;;;1.55;1.45;;;5.70;99.90;;;;;;5117429;28;20230;-66
2021/04/14 02:20:08;;;;;;;1.30;1.20;;;5.80;99.90;;;;;;5117123;28;20203;-68
2021/04/14 02:22:34;;;;;;;1.50;1.40;;;5.80;99.90;;;;;;5117079;28;20206;-66
2021/04/14 02:24:59;;;;;;;1.67;1.17;;;5.80;99.90;;;;;;5115921;28;20172;-68
2021/04/14 02:27:25;;;;;;;1.07;1.07;;;5.80;99.90;;;;;;5098707;28;20424;-68
2021/04/14 02:29:50;;;;;;;1.13;1.03;;;5.60;99.90;;;;;;5116780;28;20259;-68
2021/04/14 02:32:16;;;;;;;2.37;1.63;;;5.60;99.90;;;;;;5117028;28;20176;-67
2021/04/14 02:34:42;;;;;;;1.30;1.20;;;5.70;99.90;;;;;;5116660;28;20286;-68
2021/04/14 02:37:08;;;;;;;2.23;1.07;;;5.60;99.90;;;;;;5117027;28;20171;-67
2021/04/14 02:39:33;;;;;;;0.80;0.80;;;5.70;99.90;;;;;;5098318;28;20230;-67
2021/04/14 02:41:59;;;;;;;1.43;1.33;;;5.70;99.90;;;;;;5116990;28;20416;-68
2021/04/14 02:44:26;;;;;;;0.90;0.90;;;5.70;99.90;;;;;;5098332;28;20210;-67
2021/04/14 02:46:52;;;;;;;0.60;0.60;;;5.70;99.90;;;;;;5098579;28;20880;-67
2021/04/14 02:49:20;;;;;;;1.95;1.35;;;5.70;99.90;;;;;;5116466;28;20198;-67
2021/04/14 02:51:46;;;;;;;1.20;1.20;;;5.60;99.90;;;;;;5097840;28;20315;-67
2021/04/14 02:54:11;;;;;;;2.20;1.00;;;5.60;99.90;;;;;;5098112;28;20283;-67
2021/04/14 02:56:37;;;;;;;1.43;1.27;;;5.60;99.90;;;;;;5116444;28;20652;-67
2021/04/14 02:59:02;;;;;;;1.50;1.40;;;5.50;99.90;;;;;;5098008;28;20204;-68
2021/04/14 03:01:28;;;;;;;0.83;0.80;;;5.50;99.90;;;;;;5098057;28;20180;-67
2021/04/14 03:04:16;;;;;;;3.67;1.30;;;5.50;99.90;;;;;;5116016;28;20219;-67
2021/04/14 03:06:42;;;;;;;0.75;0.68;;;5.60;99.90;;;;;;5116244;28;20175;-67
2021/04/14 03:09:07;;;;;;;1.07;0.97;;;5.50;99.90;;;;;;5116079;28;20241;-67
2021/04/14 03:11:33;;;;;;;1.90;0.90;;;5.60;99.90;;;;;;5097776;28;20172;-67
2021/04/14 03:13:59;;;;;;;1.40;1.00;;;5.60;99.90;;;;;;5116010;28;20192;-66
2021/04/14 03:16:26;;;;;;;1.97;1.20;;;5.70;99.90;;;;;;5116034;28;20172;-67
2021/04/14 03:18:52;;;;;;;0.75;0.40;;;5.70;99.90;;;;;;5115832;28;20835;-67
2021/04/14 03:21:18;;;;;;;1.88;1.45;;;5.70;99.90;;;;;;5115986;28;20498;-66
2021/04/14 03:23:43;;;;;;;1.63;0.80;;;5.70;99.90;;;;;;5115650;28;20348;-68
2021/04/14 03:26:09;;;;;;;1.07;1.00;;;5.60;99.90;;;;;;5115717;28;20176;-66
2021/04/14 03:28:35;;;;;;;0.73;0.70;;;5.60;99.90;;;;;;5115793;28;20559;-67
2021/04/14 03:31:00;;;;;;;0.70;0.63;;;5.60;99.90;;;;;;5115797;28;20434;-66
2021/04/14 03:33:26;;;;;;;0.87;0.83;;;5.60;99.90;;;;;;5115617;28;20203;-66
2021/04/14 03:35:53;;;;;;;0.90;0.90;;;5.70;99.90;;;;;;5115488;28;20172;-67
2021/04/14 03:38:19;;;;;;;1.75;1.00;;;5.80;99.90;;;;;;5115884;28;20188;-67
2021/04/14 03:40:45;;;;;;;1.23;1.00;;;5.90;99.90;;;;;;5115483;28;20176;-67
2021/04/14 03:43:10;;;;;;;1.50;1.40;;;6.00;99.90;;;;;;5115642;28;20245;-67
2021/04/14 03:45:40;;;;;;;1.03;0.97;;;6.80;99.90;;;;;;5115414;28;20240;-68
2021/04/14 03:48:07;;;;;;;2.15;1.40;;;7.00;99.90;;;;;;5097229;28;20199;-66
2021/04/14 03:50:33;;;;;;;1.60;0.98;;;7.30;99.90;;;;;;5114983;28;20262;-68
2021/04/14 03:53:16;;;;;;;0.70;0.70;;;7.70;99.90;;;;;;5115659;28;20575;-67
2021/04/14 03:55:42;;;;;;;0.60;0.60;;;7.50;99.90;;;;;;5115233;28;20954;-69
2021/04/14 03:58:08;;;;;;;0.40;0.32;;;7.90;99.90;;;;;;5115617;28;20200;-68
2021/04/14 04:00:34;;;;;;;0.67;0.67;;;7.90;99.90;;;;;;5115123;28;20174;-68
2021/04/14 04:02:59;;;;;;;1.50;0.93;;;7.90;99.90;;;;;;5115419;28;20243;-67
2021/04/14 04:05:25;;;;;;;1.67;1.00;;;7.60;99.90;;;;;;5115030;28;20402;-68
2021/04/14 04:07:51;;;;;;;1.03;0.73;;;7.30;99.90;;;;;;5115265;28;20199;-67
2021/04/14 04:10:17;;;;;;;2.03;1.03;;;7.00;99.90;;;;;;5114923;28;20396;-68
2021/04/14 04:12:42;;;;;;;0.47;0.47;;;6.90;99.90;;;;;;5096677;28;20200;-67
2021/04/14 04:15:12;;;;;;;0.67;0.67;;;7.70;99.90;;;;;;5096617;28;20548;-67
2021/04/14 04:17:38;;;;;;;0.60;0.47;;;8.10;99.90;;;;;;5096447;28;20480;-67
2021/04/14 04:20:06;;;;;;;0.60;0.43;;;8.40;99.90;;;;;;5114782;28;20175;-68
2021/04/14 04:22:32;;;;;;;2.35;1.35;;;8.60;99.90;;;;;;5114602;28;20282;-67
2021/04/14 04:24:57;;;;;;;0.50;0.43;;;8.90;99.90;;;;;;5121429;27;20386;-68
2021/04/14 04:27:23;;;;;;;1.00;0.90;;;9.00;99.90;;;;;;5114290;28;20179;-66
2021/04/14 04:29:49;;;;;;;0.97;0.97;;;9.20;99.90;;;;;;5105738;27;20193;-69
2021/04/14 04:32:14;;;;;;;0.30;0.30;;;9.40;99.90;;;;;;5096296;28;20188;-67
2021/04/14 04:34:40;;;;;;;0.47;0.40;;;9.50;99.90;;;;;;5114439;28;20191;-67
2021/04/14 04:37:05;;;;;;;0.60;0.33;;;9.70;99.90;;;;;;5114723;28;20176;-67
2021/04/14 04:39:31;;;;;;;0.30;0.30;;;9.90;99.90;;;;;;5122293;27;20230;-66
2021/04/14 04:41:56;;;;;;;0.30;0.30;;;10.00;99.90;;;;;;5135166;27;20182;-67
2021/04/14 04:44:22;;;;;;;0.60;0.60;;;10.20;99.90;;;;;;5116319;27;20218;-67
2021/04/14 04:46:48;;;;;;;0.70;0.67;;;10.40;99.90;;;;;;5116489;28;20182;-67
2021/04/14 04:49:13;;;;;;;0.47;0.43;;;10.50;99.90;;;;;;5127516;27;20419;-67
2021/04/14 04:51:39;;;;;;;0.33;0.30;;;10.70;99.90;;;;;;5116635;27;20371;-67
2021/04/14 04:54:05;;;;;;;0.53;0.50;;;10.80;99.90;;;;;;5123758;27;20210;-67
2021/04/14 04:56:31;;;;;;;0.50;0.28;;;10.90;99.90;;;;;;5131771;27;20281;-67
2021/04/14 04:58:56;;;;;;;1.27;1.17;;;11.00;99.90;;;;;;5121618;27;20343;-67
2021/04/14 05:01:22;;;;;;;0.60;0.60;;;11.10;99.90;;;;;;5112852;28;20654;-67
2021/04/14 05:03:51;;;;;;;0.57;0.37;;;11.10;99.90;;;;;;5113990;28;20684;-67
2021/04/14 05:06:17;;;;;;;0.68;0.60;;;11.10;99.90;;;;;;5113971;28;20630;-68
2021/04/14 05:08:42;;;;;;;1.07;0.73;;;10.80;99.90;;;;;;5119193;28;20210;-68
2021/04/14 05:11:08;;;;;;;0.70;0.60;;;10.90;99.90;;;;;;5120828;28;20232;-68
2021/04/14 05:13:33;;;;;;;0.43;0.43;;;10.70;99.90;;;;;;5128687;28;20205;-67
2021/04/14 05:15:59;;;;;;;1.33;0.60;;;10.40;99.90;;;;;;5118708;28;20641;-68
2021/04/14 05:18:25;;;;;;;0.47;0.37;;;10.30;99.90;;;;;;5103586;28;20211;-67
2021/04/14 05:20:50;;;;;;;0.40;0.33;;;10.40;99.90;;;;;;5121343;28;20182;-68
2021/04/14 05:23:16;;;;;;;1.13;0.83;;;10.20;99.90;;;;;;5125229;28;20672;-67
2021/04/14 05:25:45;;;;;;;0.73;0.73;;;9.90;99.90;;;;;;5131223;28;20277;-69
2021/04/14 05:28:13;;;;;;;1.67;1.35;;;9.10;99.90;;;;;;5127538;28;20203;-67
2021/04/14 05:30:40;;;;;;;0.80;0.50;;;8.90;99.90;;;;;;5134346;28;20259;-67
2021/04/14 05:33:08;;;;;;;0.95;0.90;;;9.40;99.90;;;;;;5123286;28;20666;-68
2021/04/14 05:35:34;;;;;;;0.45;0.40;;;9.50;99.90;;;;;;5117451;28;20180;-68
2021/04/14 05:38:00;;;;;;;0.98;0.98;;;9.80;99.90;;;;;;5118856;28;20215;-67
2021/04/14 05:40:25;;;;;;;0.40;0.40;;;9.60;99.90;;;;;;5102327;28;20183;-67
2021/04/14 05:42:52;;;;;;;2.10;0.93;;;9.80;99.90;;;;;;5117084;28;20230;-66
2021/04/14 05:45:24;;;;;;;0.68;0.68;;;9.90;99.90;;;;;;5108318;28;20172;-67
2021/04/14 05:47:49;;;;;;;3.60;1.00;;;9.90;99.90;;;;;;5123719;28;20203;-66
2021/04/14 05:50:19;;;;;;;0.50;0.50;;;9.90;99.90;;;;;;5120602;28;20253;-66
2021/04/14 05:52:44;;;;;;;0.50;0.47;;;10.00;99.90;;;;;;5116852;28;20235;-66
2021/04/14 05:55:11;;;;;;;0.70;0.70;;;9.70;99.90;;;;;;5099602;28;20653;-70
2021/04/14 05:57:37;;;;;;;0.88;0.82;;;9.70;99.90;;;;;;5118354;28;20195;-68
2021/04/14 06:00:06;;;;;;;0.77;0.63;;;7.50;99.90;;;;;;5115079;28;20220;-68
2021/04/14 06:02:32;;;;;;;0.70;0.70;;;6.60;99.90;;;;;;5111733;27;20207;-66
2021/04/14 06:04:58;;;;;;;0.83;0.80;;;6.80;99.90;;;;;;5110537;28;20216;-66
2021/04/14 06:07:24;;;;;;;1.00;0.90;;;6.00;99.90;;;;;;5117701;27;20676;-68
2021/04/14 06:09:51;;;;;;;1.10;1.02;;;5.90;99.90;;;;;;5120082;27;20232;-69
2021/04/14 06:12:16;;;;;;;0.63;0.63;;;5.70;99.90;;;;;;5124170;27;20210;-69
2021/04/14 06:14:42;;;;;;;3.13;1.03;;;5.60;99.90;;;;;;5115048;27;20284;-68
2021/04/14 06:17:07;;;;;;;1.00;0.90;;;5.50;99.90;;;;;;5117309;27;20191;-68
2021/04/14 06:19:35;;;;;;;1.27;1.17;;;5.60;99.90;;;;;;5120117;27;20207;-66
2021/04/14 06:22:01;;;;;;;1.17;0.80;;;5.50;99.90;;;;;;5127473;27;20180;-68
2021/04/14 06:24:26;;;;;;;0.80;0.80;;;5.40;99.90;;;;;;5117467;27;20311;-66
2021/04/14 06:26:56;;;;;;;1.13;1.03;;;5.50;99.90;;;;;;5125225;27;20261;-66
2021/04/14 06:29:21;;;;;;;0.80;0.80;;;5.50;99.90;;;;;;5114885;27;20194;-68
2021/04/14 06:31:47;;;;;;;1.07;1.03;;;5.50;99.90;;;;;;5112710;27;20664;-66
2021/04/14 06:34:20;;;;;;;1.83;0.87;;;5.30;99.90;;;;;;5126827;27;20196;-66
2021/04/14 06:36:48;;;;;;;1.20;1.10;;;5.30;99.90;;;;;;5131527;27;20183;-65
2021/04/14 06:39:15;;;;;;;4.32;2.30;;;5.30;99.90;;;;;;5125657;27;20203;-68
2021/04/14 06:45:02;;;;;;;1.13;1.02;;;5.30;99.90;;;;;;5126764;27;20254;-66
2021/04/14 06:47:50;;;;;;;0.75;0.55;;;5.40;99.90;;;;;;5129716;27;20291;-67
2021/04/14 06:50:41;;;;;;;0.77;0.77;;;5.40;99.90;;;;;;5103661;27;20234;-68
2021/04/14 06:53:18;;;;;;;0.75;0.70;;;5.30;99.90;;;;;;5126148;27;20589;-68
2021/04/14 06:55:49;;;;;;;1.05;0.60;;;5.40;99.90;;;;;;5123057;27;20656;-68
2021/04/14 06:58:17;;;;;;;0.93;0.90;;;5.40;99.90;;;;;;5124815;27;20203;-65
2021/04/14 07:00:53;;;;;;;1.33;1.10;;;5.50;99.90;;;;;;5116914;27;20199;-69
2021/04/14 07:03:40;;;;;;;1.60;1.15;;;5.50;99.90;;;;;;5123389;27;20223;-67
2021/04/14 07:06:08;;;;;;;1.00;0.90;;;5.60;99.90;;;;;;5127816;27;20183;-66
2021/04/14 07:08:38;;;;;;;0.85;0.85;;;5.40;99.90;;;;;;5102077;27;20203;-68
2021/04/14 07:11:06;;;;;;;0.80;0.80;;;5.60;99.90;;;;;;5121735;27;20818;-69
2021/04/14 07:13:35;;;;;;;0.95;0.90;;;5.40;99.90;;;;;;5122312;27;20207;-68
2021/04/14 07:16:37;;;;;;;0.73;0.73;;;5.50;99.90;;;;;;5100846;27;20175;-66
2021/04/14 07:19:19;;;;;;;0.57;0.57;;;5.50;99.90;;;;;;5121078;27;20565;-69
2021/04/14 07:22:25;;;;;;;0.75;0.70;;;5.40;99.90;;;;;;5102823;27;20227;-66
2021/04/14 07:24:56;;;;;;;3.10;2.22;;;5.40;99.90;;;;;;5034063;28;20221;-67
2021/04/14 07:27:49;;;;;;;1.20;1.10;;;5.50;99.90;;;;;;5111037;27;20195;-68
2021/04/14 07:30:46;;;;;;;2.15;0.93;;;5.50;99.90;;;;;;5118382;27;20168;-66
2021/04/14 07:33:30;;;;;;;0.88;0.88;;;5.40;99.90;;;;;;5125786;27;20204;-68
2021/04/14 07:36:03;;;;;;;1.67;0.77;;;5.50;99.90;;;;;;5126530;27;20241;-66
2021/04/14 07:38:50;;;;;;;0.70;0.60;;;5.50;99.90;;;;;;5114725;27;20220;-66
2021/04/14 07:41:36;;;;;;;2.25;0.73;;;5.50;99.90;;;;;;5121694;27;20249;-66
2021/04/14 07:44:27;;;;;;;1.00;0.70;;;5.50;99.90;;;;;;5107198;27;20222;-67
2021/04/14 07:46:52;;;;;;;0.63;0.55;;;5.50;99.90;;;;;;5121074;27;20187;-67
2021/04/14 07:49:19;;;;;;;0.43;0.43;;;5.60;99.90;;;;;;5115384;28;20207;-68
2021/04/14 07:51:45;;;;;;;0.52;0.52;;;5.70;99.90;;;;;;5128077;27;20684;-68
2021/04/14 07:54:20;;;;;;;0.70;0.70;;;5.80;99.90;;;;;;5119666;27;20202;-68
2021/04/14 07:56:49;;;;;;;0.77;0.68;;;5.80;99.90;;;;;;5121331;27;20260;-66
2021/04/14 07:59:37;;;;;;;0.60;0.60;;;5.70;99.90;;;;;;5115395;27;20564;-66
2021/04/14 08:02:10;;;;;;;2.38;0.77;;;5.80;99.90;;;;;;5101248;27;20208;-68
2021/04/14 08:04:39;;;;;;;0.82;0.82;;;5.80;99.90;;;;;;5128906;27;20289;-69
2021/04/14 08:07:16;;;;;;;0.73;0.73;;;5.70;99.90;;;;;;5122480;27;20184;-67
2021/04/14 08:09:58;;;;;;;0.63;0.63;;;5.70;99.90;;;;;;5106673;27;20286;-70
2021/04/14 08:12:35;;;;;;;1.50;1.40;;;5.80;99.90;;;;;;5115964;27;20656;-67
2021/04/14 08:15:28;;;;;;;1.77;1.38;;;5.70;99.90;;;;;;5122052;27;20258;-67
2021/04/14 08:18:08;;;;;;;1.88;1.10;;;5.80;99.90;;;;;;5118324;27;20295;-69
2021/04/14 08:20:34;;;;;;;0.60;0.55;;;5.70;99.90;;;;;;5119659;27;20176;-66
2021/04/14 08:23:21;;;;;;;0.73;0.68;;;5.90;99.90;;;;;;5118679;27;20232;-68
2021/04/14 08:25:48;;;;;;;1.30;0.73;;;5.80;99.90;;;;;;5109289;27;20671;-69
2021/04/14 08:28:27;;;;;;;1.00;0.90;;;5.90;99.90;;;;;;5126043;27;20629;-68
2021/04/14 08:31:17;;;;;;;0.68;0.68;;;5.90;99.90;;;;;;5117949;27;20175;-69
2021/04/14 08:33:43;;;;;;;2.95;1.30;;;5.90;99.90;;;;;;5121443;27;20681;-69
2021/04/14 08:36:39;;;;;;;1.85;1.70;;;6.20;99.90;;;;;;5134256;27;20179;-68
2021/04/14 08:39:15;;;;;;;1.63;1.52;;;6.20;99.90;;;;;;5132866;27;20213;-69
2021/04/14 08:41:42;;;;;;;0.60;0.60;;;6.20;99.90;;;;;;5133938;27;20171;-69
2021/04/14 08:44:11;;;;;;;2.40;1.45;;;6.20;99.90;;;;;;5120940;27;20264;-68
2021/04/14 08:46:38;;;;;;;1.95;1.85;;;6.10;99.90;;;;;;5104198;28;20191;-67
2021/04/14 08:49:10;;;;;;;1.85;1.75;;;6.10;99.90;;;;;;5123618;27;20206;-67
2021/04/14 08:51:46;;;;;;;1.60;1.50;;;6.10;99.90;;;;;;5130186;27;20310;-67
2021/04/14 08:54:21;;;;;;;1.60;1.50;;;6.10;99.90;;;;;;5111906;27;20289;-67
2021/04/14 08:56:49;;;;;;;2.28;2.08;;;6.10;99.90;;;;;;5124422;27;20615;-68
2021/04/14 08:59:16;;;;;;;1.45;1.30;;;6.20;99.90;;;;;;5110743;28;20283;-67
2021/04/14 09:01:41;;;;;;;1.00;0.90;;;6.10;99.90;;;;;;5113433;28;20644;-67
2021/04/14 09:04:12;;;;;;;0.70;0.70;;;6.20;99.90;;;;;;5133818;27;20246;-67
2021/04/14 09:06:40;;;;;;;0.93;0.80;;;6.20;99.90;;;;;;5127418;28;20442;-69
2021/04/14 09:09:09;;;;;;;1.60;1.00;;;6.20;99.90;;;;;;5101014;28;20690;-67
2021/04/14 09:11:36;;;;;;;1.45;1.35;;;6.40;99.90;;;;;;5124976;28;20263;-69
2021/04/14 09:14:18;;;;;;;0.40;0.40;;;6.40;99.90;;;;;;5100453;28;20246;-67
2021/04/14 09:16:51;;;;;;;1.10;1.00;;;6.50;99.90;;;;;;5120352;28;20188;-67
2021/04/14 09:19:24;;;;;;;0.60;0.60;;;6.40;99.90;;;;;;5124810;28;20571;-67
2021/04/14 09:22:17;;;;;;;1.15;1.05;;;6.50;99.90;;;;;;5107147;28;20548;-66
2021/04/14 09:24:50;;;;;;;2.25;1.60;;;6.40;99.90;;;;;;5114500;28;20230;-69
2021/04/14 09:27:23;;;;;;;2.65;1.90;;;6.50;99.90;;;;;;5116065;28;20183;-68
2021/04/14 09:29:51;;;;;;;1.60;1.50;;;6.40;99.90;;;;;;5116371;28;20636;-69
2021/04/14 09:32:18;;;;;;;1.33;1.15;;;6.30;99.90;;;;;;5116851;28;20194;-67
2021/04/14 09:34:46;;;;;;;1.65;1.55;;;6.40;99.90;;;;;;5114100;27;20665;-67
2021/04/14 09:37:17;;;;;;;2.15;1.95;;;6.30;99.90;;;;;;5116827;27;20190;-66
2021/04/14 09:39:46;;;;;;;1.58;1.48;;;6.40;99.90;;;;;;5120559;27;20198;-69
2021/04/14 09:42:23;;;;;;;1.35;1.25;;;6.50;99.90;;;;;;5121903;27;20191;-66
2021/04/14 09:44:55;;;;;;;2.80;2.00;;;6.70;99.90;;;;;;5101554;27;20203;-70
2021/04/14 09:47:23;;;;;;;1.85;1.67;;;6.60;99.90;;;;;;5132894;27;20215;-68
2021/04/14 09:49:51;;;;;;;2.17;1.75;;;6.70;99.90;;;;;;5120451;27;20266;-67
2021/04/14 09:52:19;;;;;;;2.40;2.10;;;6.60;99.90;;;;;;5130609;27;20841;-68
2021/04/14 09:54:46;;;;;;;3.13;2.28;;;6.40;99.90;;;;;;5120830;27;20203;-69
2021/04/14 09:57:17;;;;;;;2.25;2.05;;;6.30;99.90;;;;;;5123921;27;20180;-67
2021/04/14 09:59:43;;;;;;;2.63;2.42;;;6.30;99.90;;;;;;5133594;27;20253;-69
2021/04/14 10:02:20;;;;;;;2.33;2.13;;;6.40;99.90;;;;;;5116304;27;20768;-67
2021/04/14 10:04:47;;;;;;;2.78;2.55;;;6.50;99.90;;;;;;5124301;27;20187;-66
2021/04/14 10:07:20;;;;;;;2.33;1.83;;;6.60;99.90;;;;;;5127290;27;20183;-67
2021/04/14 10:09:46;;;;;;;2.25;2.15;;;6.80;99.90;;;;;;5123957;27;20199;-69
2021/04/14 10:12:13;;;;;;;3.28;2.97;;;7.00;99.90;;;;;;5114706;27;20232;-69
2021/04/14 10:14:51;;;;;;;2.95;2.75;;;7.00;99.90;;;;;;5124767;27;20199;-69
2021/04/14 10:17:19;;;;;;;3.00;2.63;;;6.90;99.90;;;;;;5117883;27;20195;-67
2021/04/14 10:19:51;;;;;;;2.30;2.10;;;7.10;99.90;;;;;;5105289;27;20218;-69
2021/04/14 10:22:21;;;;;;;3.25;2.95;;;7.20;99.90;;;;;;5119264;27;20198;-69
2021/04/14 10:24:47;;;;;;;3.47;2.78;;;7.30;99.90;;;;;;5122143;27;21387;-69
2021/04/14 10:27:22;;;;;;;2.37;2.17;;;7.30;99.90;;;;;;5125919;27;20699;-68
2021/04/14 10:29:48;;;;;;;3.38;2.80;;;7.40;99.90;;;;;;5124258;27;20428;-70
2021/04/14 10:32:24;;;;;;;4.80;3.80;;;7.40;99.90;;;;;;5109110;27;20175;-66
2021/04/14 10:34:51;;;;;;;2.45;2.25;;;7.20;99.90;;;;;;5125884;27;20192;-69
2021/04/14 10:37:22;;;;;;;3.80;2.40;;;7.20;99.90;;;;;;5134616;27;20231;-68
2021/04/14 10:39:49;;;;;;;2.28;1.85;;;7.30;99.90;;;;;;5134267;27;20309;-69
2021/04/14 10:42:24;;;;;;;2.28;2.00;;;7.40;99.90;;;;;;5119537;27;20190;-67
2021/04/14 10:44:53;;;;;;;4.00;3.60;;;7.50;99.90;;;;;;5118733;27;20198;-69
2021/04/14 10:47:22;;;;;;;3.33;3.05;;;7.50;99.90;;;;;;5123382;27;20192;-67
2021/04/14 10:49:49;;;;;;;7.20;4.68;;;7.40;99.90;;;;;;5123898;27;20179;-69
2021/04/14 10:52:28;;;;;;;3.83;2.75;;;7.50;99.90;;;;;;5106407;27;20228;-69
2021/04/14 10:54:58;;;;;;;3.00;2.17;;;7.50;99.90;;;;;;5098695;28;20543;-66
2021/04/14 10:57:31;;;;;;;5.22;3.50;;;7.60;99.90;;;;;;5106631;28;20191;-67
2021/04/14 11:00:07;;;;;;;4.20;3.38;;;7.60;99.90;;;;;;5102766;28;20521;-70
2021/04/14 11:02:37;;;;;;;4.93;4.43;;;7.40;99.90;;;;;;5106390;28;20184;-67
2021/04/14 11:05:04;;;;;;;3.85;3.40;;;7.20;99.90;;;;;;5101223;28;20450;-69
2021/04/14 11:07:35;;;;;;;5.32;4.45;;;7.20;99.90;;;;;;5110742;28;20556;-67
2021/04/14 11:10:06;;;;;;;4.05;3.60;;;7.30;99.90;;;;;;5104708;28;20602;-67
2021/04/14 11:12:33;;;;;;;3.40;3.10;;;7.40;99.90;;;;;;5098065;28;20546;-67
2021/04/14 11:15:10;;;;;;;4.28;2.60;;;7.40;99.90;;;;;;5097308;28;20252;-69
2021/04/14 11:17:36;;;;;;;2.72;2.53;;;7.60;99.90;;;;;;5104433;28;20183;-66
2021/04/14 11:20:24;;;;;;;3.00;2.72;;;7.70;99.90;;;;;;5108041;28;20172;-68
2021/04/14 11:22:56;;;;;;;3.42;2.63;;;7.90;99.90;;;;;;5111661;28;20223;-68
2021/04/14 11:25:34;;;;;;;2.15;1.85;;;8.00;99.90;;;;;;5111845;28;20753;-66
2021/04/14 11:28:12;;;;;;;4.10;3.47;;;8.00;99.90;;;;;;5107825;28;20210;-68
2021/04/14 11:30:56;;;;;;;2.80;2.60;;;7.90;99.90;;;;;;5096971;28;20180;-66
2021/04/14 11:33:42;;;;;;;4.28;3.08;;;7.90;99.90;;;;;;5101653;28;20234;-67
2021/04/14 11:36:25;;;;;;;3.50;2.97;;;8.00;99.90;;;;;;5106815;28;20283;-68
2021/04/14 11:39:10;;;;;;;4.13;2.65;;;8.00;99.90;;;;;;5100517;28;20248;-67
2021/04/14 11:41:40;;;;;;;3.08;2.40;;;7.80;99.90;;;;;;5103336;28;20189;-68
2021/04/14 11:44:36;;;;;;;3.60;3.13;;;7.80;99.90;;;;;;5094310;28;20220;-69
2021/04/14 11:47:04;;;;;;;3.15;2.53;;;7.70;99.90;;;;;;5093468;28;20188;-67
2021/04/14 11:49:36;;;;;;;3.30;3.00;;;7.70;99.90;;;;;;5094238;28;20196;-67
2021/04/14 11:52:28;;;;;;;4.53;2.67;;;7.80;99.90;;;;;;5118867;27;20279;-67
2021/04/14 11:55:09;;;;;;;4.65;2.97;;;7.80;99.90;;;;;;5124220;27;20171;-67
2021/04/14 11:57:40;;;;;;;3.63;2.95;;;7.70;99.90;;;;;;5131341;27;20190;-67
2021/04/14 12:00:19;;;;;;;2.25;2.05;;;7.50;99.90;;;;;;5120429;27;20222;-67
2021/04/14 12:02:48;;;;;;;3.65;2.40;;;7.50;99.90;;;;;;5124752;27;20207;-65
2021/04/14 12:05:13;;;;;;;4.13;3.65;;;7.50;99.90;;;;;;5130402;27;20674;-67
2021/04/14 12:07:39;;;;;;;3.10;2.80;;;7.70;99.90;;;;;;5126544;27;20191;-66
2021/04/14 12:10:06;;;;;;;4.43;3.37;;;7.80;99.90;;;;;;5116783;27;20258;-65
2021/04/14 12:12:33;;;;;;;2.95;2.75;;;8.00;99.90;;;;;;5104782;27;20548;-65
2021/04/14 12:14:59;;;;;;;3.97;3.58;;;8.00;99.90;;;;;;5105632;27;20172;-66
2021/04/14 12:17:25;;;;;;;3.27;2.97;;;8.00;99.90;;;;;;5110392;28;20191;-67
2021/04/14 12:19:52;;;;;;;3.25;2.92;;;8.10;99.90;;;;;;5109148;27;20207;-68
2021/04/14 12:22:18;;;;;;;5.93;2.80;;;8.30;99.90;;;;;;5132999;27;20187;-68
2021/04/14 12:24:45;;;;;;;2.60;2.40;;;8.30;99.90;;;;;;5124624;27;20246;-67
2021/04/14 12:27:11;;;;;;;3.10;2.80;;;8.40;99.90;;;;;;5117133;27;20663;-66
2021/04/14 12:29:38;;;;;;;2.30;2.08;;;8.60;99.90;;;;;;5100702;28;20294;-67
2021/04/14 12:32:04;;;;;;;6.20;4.18;;;8.70;99.90;;;;;;5128025;27;20206;-66
2021/04/14 12:34:30;;;;;;;4.70;4.10;;;8.70;99.90;;;;;;5114809;27;20251;-66
2021/04/14 12:36:55;;;;;;;4.47;4.03;;;8.50;99.90;;;;;;5129179;27;20473;-67
2021/04/14 12:39:21;;;;;;;3.80;3.30;;;8.50;99.90;;;;;;5112154;27;20210;-66
2021/04/14 12:41:47;;;;;;;5.97;3.67;;;8.40;99.90;;;;;;5119952;27;20184;-68
2021/04/14 12:44:12;;;;;;;3.43;3.13;;;8.40;99.90;;;;;;5121965;27;20212;-68
2021/04/14 12:46:43;;;;;;;4.90;4.40;;;8.30;99.90;;;;;;5121052;27;20687;-68
2021/04/14 12:49:12;;;;;;;3.55;3.22;;;8.40;99.90;;;;;;5100098;28;20676;-66
2021/04/14 12:51:42;;;;;;;3.88;3.50;;;8.30;99.90;;;;;;5116364;27;20223;-66
2021/04/14 12:54:14;;;;;;;3.10;2.75;;;8.30;99.90;;;;;;5125727;27;20570;-66
2021/04/14 12:56:56;;;;;;;3.00;2.80;;;8.20;99.90;;;;;;5129788;27;20183;-66
2021/04/14 12:59:26;;;;;;;3.78;3.08;;;8.10;99.90;;;;;;5131608;27;20190;-67
2021/04/14 13:01:56;;;;;;;4.72;3.25;;;8.20;99.90;;;;;;5124274;27;20291;-66
2021/04/14 13:04:33;;;;;;;3.65;3.28;;;8.20;99.90;;;;;;5116619;27;20763;-66
2021/04/14 13:07:09;;;;;;;4.95;3.90;;;8.30;99.90;;;;;;5111413;28;20236;-66
2021/04/14 13:09:35;;;;;;;3.17;2.83;;;8.30;99.90;;;;;;5128471;27;20202;-68
2021/04/14 13:12:09;;;;;;;2.72;2.53;;;8.20;99.90;;;;;;5127158;27;20663;-66
2021/04/14 13:14:35;;;;;;;4.10;3.05;;;8.30;99.90;;;;;;5133742;27;20233;-66